sensor_id;sensor_type;location;lat;lon;timestamp;temperature;humidity
28715;DHT22;15886;49.170;14.572;2023-02-01T00:04:19;4.40;99.90
28715;DHT22;15886;49.170;14.572;2023-02-01T00:11:13;4.50;99.90
28715;DHT22;15886;49.170;14.572;2023-02-01T00:14:28;4.50;99.90
28715;DHT22;15886;49.170;14.572;2023-02-01T00:17:17;4.50;99.90
28715;DHT22;15886;49.170;14.572;2023-02-01T00:20:05;4.50;99.90
28715;DHT22;15886;49.170;14.572;2023-02-01T00:25:53;4.60;99.90
28715;DHT22;15886;49.170;14.572;2023-02-01T00:37:23;4.60;99.90
28715;DHT22;15886;49.170;14.572;2023-02-01T00:44:29;4.60;99.90
28715;DHT22;15886;49.170;14.572;2023-02-01T00:48:36;4.60;99.90
28715;DHT22;15886;49.170;14.572;2023-02-01T00:51:44;4.60;99.90
28715;DHT22;15886;49.170;14.572;2023-02-01T00:54:47;4.60;99.90
28715;DHT22;15886;49.170;14.572;2023-02-01T01:02:40;4.60;99.90
28715;DHT22;15886;49.170;14.572;2023-02-01T01:05:39;4.60;99.90
28715;DHT22;15886;49.170;14.572;2023-02-01T01:12:47;4.60;99.90
28715;DHT22;15886;49.170;14.572;2023-02-01T01:16:30;4.60;99.90
28715;DHT22;15886;49.170;14.572;2023-02-01T01:19:44;4.60;99.90
28715;DHT22;15886;49.170;14.572;2023-02-01T01:22:56;4.70;99.90
28715;DHT22;15886;49.170;14.572;2023-02-01T01:26:21;4.70;99.90
28715;DHT22;15886;49.170;14.572;2023-02-01T01:28:59;4.60;99.90
28715;DHT22;15886;49.170;14.572;2023-02-01T01:31:32;4.60;99.90
28715;DHT22;15886;49.170;14.572;2023-02-01T01:34:08;4.60;99.90
28715;DHT22;15886;49.170;14.572;2023-02-01T01:37:09;4.60;99.90
28715;DHT22;15886;49.170;14.572;2023-02-01T01:43:51;4.60;99.90
28715;DHT22;15886;49.170;14.572;2023-02-01T01:46:38;4.60;99.90
28715;DHT22;15886;49.170;14.572;2023-02-01T01:49:35;4.50;99.90
28715;DHT22;15886;49.170;14.572;2023-02-01T01:52:11;4.50;99.90
28715;DHT22;15886;49.170;14.572;2023-02-01T01:54:51;4.50;99.90
28715;DHT22;15886;49.170;14.572;2023-02-01T02:01:12;4.50;99.90
28715;DHT22;15886;49.170;14.572;2023-02-01T02:10:34;4.50;99.90
28715;DHT22;15886;49.170;14.572;2023-02-01T02:46:53;4.30;99.90
28715;DHT22;15886;49.170;14.572;2023-02-01T02:50:59;4.30;99.90
28715;DHT22;15886;49.170;14.572;2023-02-01T02:57:45;4.30;99.90
28715;DHT22;15886;49.170;14.572;2023-02-01T03:00:43;4.30;99.90
28715;DHT22;15886;49.170;14.572;2023-02-01T03:04:18;4.30;99.90
28715;DHT22;15886;49.170;14.572;2023-02-01T03:07:53;4.30;99.90
28715;DHT22;15886;49.170;14.572;2023-02-01T03:10:44;4.30;99.90
28715;DHT22;15886;49.170;14.572;2023-02-01T03:20:37;4.30;99.90
28715;DHT22;15886;49.170;14.572;2023-02-01T03:30:32;4.20;99.90
28715;DHT22;15886;49.170;14.572;2023-02-01T03:33:57;4.20;99.90
28715;DHT22;15886;49.170;14.572;2023-02-01T03:36:59;4.10;99.90
28715;DHT22;15886;49.170;14.572;2023-02-01T03:40:02;4.20;99.90
28715;DHT22;15886;49.170;14.572;2023-02-01T03:42:47;4.10;99.90
28715;DHT22;15886;49.170;14.572;2023-02-01T03:45:39;4.10;99.90
28715;DHT22;15886;49.170;14.572;2023-02-01T03:48:13;4.10;99.90
28715;DHT22;15886;49.170;14.572;2023-02-01T03:51:03;4.00;99.90
28715;DHT22;15886;49.170;14.572;2023-02-01T03:53:35;4.00;99.90
28715;DHT22;15886;49.170;14.572;2023-02-01T03:56:08;4.00;99.90
28715;DHT22;15886;49.170;14.572;2023-02-01T03:58:40;4.00;99.90
28715;DHT22;15886;49.170;14.572;2023-02-01T04:01:08;4.00;99.90
28715;DHT22;15886;49.170;14.572;2023-02-01T04:03:40;4.00;99.90
28715;DHT22;15886;49.170;14.572;2023-02-01T04:06:12;4.00;99.90
28715;DHT22;15886;49.170;14.572;2023-02-01T04:09:01;4.00;99.90
28715;DHT22;15886;49.170;14.572;2023-02-01T04:11:39;4.10;99.90
28715;DHT22;15886;49.170;14.572;2023-02-01T04:14:08;4.10;99.90
28715;DHT22;15886;49.170;14.572;2023-02-01T04:17:18;4.10;99.90
28715;DHT22;15886;49.170;14.572;2023-02-01T04:19:46;4.10;99.90
28715;DHT22;15886;49.170;14.572;2023-02-01T04:22:14;4.10;99.90
28715;DHT22;15886;49.170;14.572;2023-02-01T04:24:41;4.10;99.90
28715;DHT22;15886;49.170;14.572;2023-02-01T04:27:11;4.10;99.90
28715;DHT22;15886;49.170;14.572;2023-02-01T04:29:40;4.10;99.90
28715;DHT22;15886;49.170;14.572;2023-02-01T04:32:25;4.10;99.90
28715;DHT22;15886;49.170;14.572;2023-02-01T04:41:30;4.20;99.90
28715;DHT22;15886;49.170;14.572;2023-02-01T04:44:02;4.20;99.90
28715;DHT22;15886;49.170;14.572;2023-02-01T04:46:48;4.20;99.90
28715;DHT22;15886;49.170;14.572;2023-02-01T04:49:21;4.30;99.90
28715;DHT22;15886;49.170;14.572;2023-02-01T04:52:38;4.30;99.90
28715;DHT22;15886;49.170;14.572;2023-02-01T04:59:37;4.30;99.90
28715;DHT22;15886;49.170;14.572;2023-02-01T05:02:10;4.30;99.90
28715;DHT22;15886;49.170;14.572;2023-02-01T05:05:13;4.40;99.90
28715;DHT22;15886;49.170;14.572;2023-02-01T05:07:58;4.40;99.90
28715;DHT22;15886;49.170;14.572;2023-02-01T05:10:45;4.40;99.90
28715;DHT22;15886;49.170;14.572;2023-02-01T05:13:14;4.40;99.90
28715;DHT22;15886;49.170;14.572;2023-02-01T05:16:02;4.40;99.90
28715;DHT22;15886;49.170;14.572;2023-02-01T05:18:34;4.40;99.90
28715;DHT22;15886;49.170;14.572;2023-02-01T05:21:04;4.40;99.90
28715;DHT22;15886;49.170;14.572;2023-02-01T05:23:35;4.30;99.90
28715;DHT22;15886;49.170;14.572;2023-02-01T05:26:32;4.30;99.90
28715;DHT22;15886;49.170;14.572;2023-02-01T13:44:31;6.40;98.30
28715;DHT22;15886;49.170;14.572;2023-02-01T13:47:43;6.30;97.80
28715;DHT22;15886;49.170;14.572;2023-02-01T13:51:58;6.20;97.80
28715;DHT22;15886;49.170;14.572;2023-02-01T14:11:36;6.00;99.30
28715;DHT22;15886;49.170;14.572;2023-02-01T14:19:26;5.90;99.30
28715;DHT22;15886;49.170;14.572;2023-02-01T14:22:32;5.90;99.60
28715;DHT22;15886;49.170;14.572;2023-02-01T14:25:59;5.90;99.60
28715;DHT22;15886;49.170;14.572;2023-02-01T14:29:37;5.80;99.90
28715;DHT22;15886;49.170;14.572;2023-02-01T14:32:51;5.90;99.80
28715;DHT22;15886;49.170;14.572;2023-02-01T14:36:10;5.80;99.70
28715;DHT22;15886;49.170;14.572;2023-02-01T14:39:17;5.80;99.60
28715;DHT22;15886;49.170;14.572;2023-02-01T14:59:00;5.60;99.90
28715;DHT22;15886;49.170;14.572;2023-02-01T15:01:35;5.60;99.90
28715;DHT22;15886;49.170;14.572;2023-02-01T15:04:17;5.60;99.90
28715;DHT22;15886;49.170;14.572;2023-02-01T15:07:04;5.50;99.90
28715;DHT22;15886;49.170;14.572;2023-02-01T15:09:43;5.50;99.90
28715;DHT22;15886;49.170;14.572;2023-02-01T15:12:17;5.50;99.90
28715;DHT22;15886;49.170;14.572;2023-02-01T15:18:04;5.50;99.90
28715;DHT22;15886;49.170;14.572;2023-02-01T15:21:03;5.40;99.90
28715;DHT22;15886;49.170;14.572;2023-02-01T15:24:09;5.50;99.90
28715;DHT22;15886;49.170;14.572;2023-02-01T15:27:05;5.50;99.90
28715;DHT22;15886;49.170;14.572;2023-02-01T15:29:35;5.50;99.90
28715;DHT22;15886;49.170;14.572;2023-02-01T15:32:05;5.40;99.90
28715;DHT22;15886;49.170;14.572;2023-02-01T15:34:48;5.40;99.90
28715;DHT22;15886;49.170;14.572;2023-02-01T15:37:27;5.50;99.90
28715;DHT22;15886;49.170;14.572;2023-02-01T15:40:19;5.50;99.90
28715;DHT22;15886;49.170;14.572;2023-02-01T15:42:58;5.50;99.90
28715;DHT22;15886;49.170;14.572;2023-02-01T15:45:29;5.50;99.90
28715;DHT22;15886;49.170;14.572;2023-02-01T15:48:02;5.50;99.90
28715;DHT22;15886;49.170;14.572;2023-02-01T15:50:35;5.40;99.90
28715;DHT22;15886;49.170;14.572;2023-02-01T15:53:19;5.40;99.90
28715;DHT22;15886;49.170;14.572;2023-02-01T15:55:52;5.40;99.90
28715;DHT22;15886;49.170;14.572;2023-02-01T15:58:23;5.40;99.90
28715;DHT22;15886;49.170;14.572;2023-02-01T16:01:00;5.40;99.90
28715;DHT22;15886;49.170;14.572;2023-02-01T16:03:43;5.30;99.90
28715;DHT22;15886;49.170;14.572;2023-02-01T16:12:47;5.10;99.90
28715;DHT22;15886;49.170;14.572;2023-02-01T16:16:05;5.10;99.90
28715;DHT22;15886;49.170;14.572;2023-02-01T16:18:50;4.90;99.90
28715;DHT22;15886;49.170;14.572;2023-02-01T16:21:24;4.90;99.90
28715;DHT22;15886;49.170;14.572;2023-02-01T16:23:55;4.80;99.90
28715;DHT22;15886;49.170;14.572;2023-02-01T16:26:45;4.70;99.90
28715;DHT22;15886;49.170;14.572;2023-02-01T16:29:19;4.80;99.90
28715;DHT22;15886;49.170;14.572;2023-02-01T16:31:54;4.80;99.90
28715;DHT22;15886;49.170;14.572;2023-02-01T16:34:22;4.80;99.90
28715;DHT22;15886;49.170;14.572;2023-02-01T16:36:58;4.80;99.90
28715;DHT22;15886;49.170;14.572;2023-02-01T16:39:42;4.80;99.90
28715;DHT22;15886;49.170;14.572;2023-02-01T16:42:16;4.80;99.90
28715;DHT22;15886;49.170;14.572;2023-02-01T16:45:02;4.80;99.90
28715;DHT22;15886;49.170;14.572;2023-02-01T16:47:57;4.80;99.90
28715;DHT22;15886;49.170;14.572;2023-02-01T16:50:53;4.80;99.90
28715;DHT22;15886;49.170;14.572;2023-02-01T16:53:24;4.80;99.90
28715;DHT22;15886;49.170;14.572;2023-02-01T16:56:38;4.70;99.90
28715;DHT22;15886;49.170;14.572;2023-02-01T16:59:19;4.70;99.90
28715;DHT22;15886;49.170;14.572;2023-02-01T17:05:14;4.60;99.90
28715;DHT22;15886;49.170;14.572;2023-02-01T17:08:09;4.60;99.90
28715;DHT22;15886;49.170;14.572;2023-02-01T17:11:56;4.70;99.90
28715;DHT22;15886;49.170;14.572;2023-02-01T17:43:39;4.80;99.90
28715;DHT22;15886;49.170;14.572;2023-02-01T17:46:28;4.90;99.90
28715;DHT22;15886;49.170;14.572;2023-02-01T17:50:39;4.80;99.90
28715;DHT22;15886;49.170;14.572;2023-02-01T17:54:03;4.80;99.90
28715;DHT22;15886;49.170;14.572;2023-02-01T17:56:38;4.90;99.90
28715;DHT22;15886;49.170;14.572;2023-02-01T17:59:09;4.90;99.90
28715;DHT22;15886;49.170;14.572;2023-02-01T18:01:57;4.90;99.90
28715;DHT22;15886;49.170;14.572;2023-02-01T18:04:29;4.90;99.90
28715;DHT22;15886;49.170;14.572;2023-02-01T18:07:14;4.90;99.90
28715;DHT22;15886;49.170;14.572;2023-02-01T18:09:45;5.00;99.90
28715;DHT22;15886;49.170;14.572;2023-02-01T18:12:53;5.00;99.90
28715;DHT22;15886;49.170;14.572;2023-02-01T18:15:41;5.00;99.90
28715;DHT22;15886;49.170;14.572;2023-02-01T18:18:55;5.00;99.90
28715;DHT22;15886;49.170;14.572;2023-02-01T18:21:41;5.00;99.90
28715;DHT22;15886;49.170;14.572;2023-02-01T18:24:24;5.00;99.90
28715;DHT22;15886;49.170;14.572;2023-02-01T18:26:55;5.00;99.90
28715;DHT22;15886;49.170;14.572;2023-02-01T18:29:27;5.00;99.90
28715;DHT22;15886;49.170;14.572;2023-02-01T18:32:03;4.90;99.90
28715;DHT22;15886;49.170;14.572;2023-02-01T18:34:42;4.90;99.90
28715;DHT22;15886;49.170;14.572;2023-02-01T18:37:33;4.90;99.90
28715;DHT22;15886;49.170;14.572;2023-02-01T18:41:53;4.90;99.90
28715;DHT22;15886;49.170;14.572;2023-02-01T18:44:54;4.90;99.90
28715;DHT22;15886;49.170;14.572;2023-02-01T18:47:22;4.90;99.90
28715;DHT22;15886;49.170;14.572;2023-02-01T18:49:59;4.90;99.90
28715;DHT22;15886;49.170;14.572;2023-02-01T18:52:44;4.90;99.90
28715;DHT22;15886;49.170;14.572;2023-02-01T18:55:12;4.90;99.90
28715;DHT22;15886;49.170;14.572;2023-02-01T18:57:53;4.90;99.90
28715;DHT22;15886;49.170;14.572;2023-02-01T19:04:48;4.80;99.90
28715;DHT22;15886;49.170;14.572;2023-02-01T19:07:18;4.80;99.90
28715;DHT22;15886;49.170;14.572;2023-02-01T19:10:08;4.80;99.90
28715;DHT22;15886;49.170;14.572;2023-02-01T19:13:26;4.70;99.90
28715;DHT22;15886;49.170;14.572;2023-02-01T19:16:30;4.70;99.90
28715;DHT22;15886;49.170;14.572;2023-02-01T19:19:26;4.70;99.90
28715;DHT22;15886;49.170;14.572;2023-02-01T19:22:13;4.60;99.90
28715;DHT22;15886;49.170;14.572;2023-02-01T19:24:41;4.60;99.90
28715;DHT22;15886;49.170;14.572;2023-02-01T19:27:10;4.60;99.90
28715;DHT22;15886;49.170;14.572;2023-02-01T19:29:41;4.60;99.90
28715;DHT22;15886;49.170;14.572;2023-02-01T19:32:15;4.60;99.90
28715;DHT22;15886;49.170;14.572;2023-02-01T19:34:45;4.60;99.90
28715;DHT22;15886;49.170;14.572;2023-02-01T19:37:19;4.60;99.90
28715;DHT22;15886;49.170;14.572;2023-02-01T19:39:54;4.60;99.90
28715;DHT22;15886;49.170;14.572;2023-02-01T19:42:45;4.60;99.90
28715;DHT22;15886;49.170;14.572;2023-02-01T19:45:15;4.60;99.90
28715;DHT22;15886;49.170;14.572;2023-02-01T19:47:46;4.60;99.90
28715;DHT22;15886;49.170;14.572;2023-02-01T19:54:36;4.70;99.90
28715;DHT22;15886;49.170;14.572;2023-02-01T20:01:07;4.80;99.90
28715;DHT22;15886;49.170;14.572;2023-02-01T20:03:53;4.80;99.90
28715;DHT22;15886;49.170;14.572;2023-02-01T20:06:57;4.80;99.90
28715;DHT22;15886;49.170;14.572;2023-02-01T20:09:29;4.80;99.90
28715;DHT22;15886;49.170;14.572;2023-02-01T20:12:12;4.80;99.90
28715;DHT22;15886;49.170;14.572;2023-02-01T20:14:58;4.80;99.90
28715;DHT22;15886;49.170;14.572;2023-02-01T20:17:37;4.80;99.90
28715;DHT22;15886;49.170;14.572;2023-02-01T20:20:09;4.80;99.90
28715;DHT22;15886;49.170;14.572;2023-02-01T20:22:48;4.80;99.90
28715;DHT22;15886;49.170;14.572;2023-02-01T20:25:20;4.90;99.90
28715;DHT22;15886;49.170;14.572;2023-02-01T20:27:49;4.90;99.90
28715;DHT22;15886;49.170;14.572;2023-02-01T20:30:23;4.90;99.90
28715;DHT22;15886;49.170;14.572;2023-02-01T20:32:51;4.90;99.90
28715;DHT22;15886;49.170;14.572;2023-02-01T20:35:22;4.90;99.90
28715;DHT22;15886;49.170;14.572;2023-02-01T20:37:57;5.00;99.90
28715;DHT22;15886;49.170;14.572;2023-02-01T20:40:30;5.00;99.90
28715;DHT22;15886;49.170;14.572;2023-02-01T20:42:59;5.00;99.90
28715;DHT22;15886;49.170;14.572;2023-02-01T20:45:27;5.00;99.90
28715;DHT22;15886;49.170;14.572;2023-02-01T20:47:55;5.00;99.90
28715;DHT22;15886;49.170;14.572;2023-02-01T20:50:24;5.00;99.90
28715;DHT22;15886;49.170;14.572;2023-02-01T20:53:00;5.00;99.90
28715;DHT22;15886;49.170;14.572;2023-02-01T20:55:31;5.10;99.90
28715;DHT22;15886;49.170;14.572;2023-02-01T20:57:59;5.10;99.90
28715;DHT22;15886;49.170;14.572;2023-02-01T21:00:27;5.10;99.90
28715;DHT22;15886;49.170;14.572;2023-02-01T21:02:57;5.20;99.90
28715;DHT22;15886;49.170;14.572;2023-02-01T21:05:25;5.20;99.90
28715;DHT22;15886;49.170;14.572;2023-02-01T21:08:11;5.20;99.90
28715;DHT22;15886;49.170;14.572;2023-02-01T21:10:39;5.20;99.90
28715;DHT22;15886;49.170;14.572;2023-02-01T21:13:08;5.20;99.90
28715;DHT22;15886;49.170;14.572;2023-02-01T21:15:36;5.20;99.90
28715;DHT22;15886;49.170;14.572;2023-02-01T21:18:05;5.20;99.90
28715;DHT22;15886;49.170;14.572;2023-02-01T21:20:36;5.20;99.90
28715;DHT22;15886;49.170;14.572;2023-02-01T21:23:04;4.80;99.90
28715;DHT22;15886;49.170;14.572;2023-02-01T21:25:33;4.30;99.90
28715;DHT22;15886;49.170;14.572;2023-02-01T21:28:03;4.00;99.90
28715;DHT22;15886;49.170;14.572;2023-02-01T21:30:31;3.80;99.90
28715;DHT22;15886;49.170;14.572;2023-02-01T21:32:59;3.70;99.90
28715;DHT22;15886;49.170;14.572;2023-02-01T21:35:28;3.50;99.90
28715;DHT22;15886;49.170;14.572;2023-02-01T21:37:57;3.30;99.90
28715;DHT22;15886;49.170;14.572;2023-02-01T21:40:26;3.30;99.90
28715;DHT22;15886;49.170;14.572;2023-02-01T21:42:54;3.20;99.90
28715;DHT22;15886;49.170;14.572;2023-02-01T21:45:24;3.10;99.90
28715;DHT22;15886;49.170;14.572;2023-02-01T21:47:53;3.10;99.90
28715;DHT22;15886;49.170;14.572;2023-02-01T21:50:29;3.00;99.90
28715;DHT22;15886;49.170;14.572;2023-02-01T21:53:17;3.00;99.90
28715;DHT22;15886;49.170;14.572;2023-02-01T21:55:49;3.00;99.90
28715;DHT22;15886;49.170;14.572;2023-02-01T21:58:44;3.00;99.90
28715;DHT22;15886;49.170;14.572;2023-02-01T22:01:12;3.00;99.90
28715;DHT22;15886;49.170;14.572;2023-02-01T22:04:01;3.00;99.90
28715;DHT22;15886;49.170;14.572;2023-02-01T22:06:31;3.00;99.90
28715;DHT22;15886;49.170;14.572;2023-02-01T22:09:04;3.00;99.90
28715;DHT22;15886;49.170;14.572;2023-02-01T22:11:32;3.00;99.90
28715;DHT22;15886;49.170;14.572;2023-02-01T22:14:00;2.90;99.90
28715;DHT22;15886;49.170;14.572;2023-02-01T22:16:29;2.80;99.90
28715;DHT22;15886;49.170;14.572;2023-02-01T22:19:03;2.70;99.90
28715;DHT22;15886;49.170;14.572;2023-02-01T22:21:50;2.70;99.90
28715;DHT22;15886;49.170;14.572;2023-02-01T22:24:18;2.80;99.90
28715;DHT22;15886;49.170;14.572;2023-02-01T22:26:48;2.70;99.90
28715;DHT22;15886;49.170;14.572;2023-02-01T22:29:16;2.70;99.90
28715;DHT22;15886;49.170;14.572;2023-02-01T22:31:46;2.70;99.90
28715;DHT22;15886;49.170;14.572;2023-02-01T22:34:36;2.70;99.90
28715;DHT22;15886;49.170;14.572;2023-02-01T22:37:06;2.70;99.90
28715;DHT22;15886;49.170;14.572;2023-02-01T22:39:39;2.80;99.90
28715;DHT22;15886;49.170;14.572;2023-02-01T22:42:08;2.80;99.90
28715;DHT22;15886;49.170;14.572;2023-02-01T22:44:44;2.70;99.90
28715;DHT22;15886;49.170;14.572;2023-02-01T22:47:13;2.70;99.90
28715;DHT22;15886;49.170;14.572;2023-02-01T22:49:45;2.70;99.90
28715;DHT22;15886;49.170;14.572;2023-02-01T22:52:21;2.70;99.90
28715;DHT22;15886;49.170;14.572;2023-02-01T22:54:50;2.70;99.90
28715;DHT22;15886;49.170;14.572;2023-02-01T22:57:18;2.70;99.90
28715;DHT22;15886;49.170;14.572;2023-02-01T22:59:47;2.60;99.90
28715;DHT22;15886;49.170;14.572;2023-02-01T23:02:15;2.60;99.90
28715;DHT22;15886;49.170;14.572;2023-02-01T23:04:46;2.50;99.90
28715;DHT22;15886;49.170;14.572;2023-02-01T23:07:16;2.50;99.90
28715;DHT22;15886;49.170;14.572;2023-02-01T23:10:01;2.50;99.90
28715;DHT22;15886;49.170;14.572;2023-02-01T23:12:41;2.40;99.90
28715;DHT22;15886;49.170;14.572;2023-02-01T23:15:12;2.50;99.90
28715;DHT22;15886;49.170;14.572;2023-02-01T23:17:43;2.50;99.90
28715;DHT22;15886;49.170;14.572;2023-02-01T23:20:27;2.50;99.90
28715;DHT22;15886;49.170;14.572;2023-02-01T23:22:57;2.50;99.90
28715;DHT22;15886;49.170;14.572;2023-02-01T23:25:29;2.50;99.90
28715;DHT22;15886;49.170;14.572;2023-02-01T23:28:00;2.50;99.90
28715;DHT22;15886;49.170;14.572;2023-02-01T23:30:33;2.60;99.90
28715;DHT22;15886;49.170;14.572;2023-02-01T23:33:02;2.60;99.90
28715;DHT22;15886;49.170;14.572;2023-02-01T23:35:31;2.60;99.90
28715;DHT22;15886;49.170;14.572;2023-02-01T23:37:59;2.60;99.90
28715;DHT22;15886;49.170;14.572;2023-02-01T23:40:27;2.60;99.90
28715;DHT22;15886;49.170;14.572;2023-02-01T23:42:59;2.60;99.90
28715;DHT22;15886;49.170;14.572;2023-02-01T23:45:47;2.60;99.90
28715;DHT22;15886;49.170;14.572;2023-02-01T23:48:15;2.70;99.90
28715;DHT22;15886;49.170;14.572;2023-02-01T23:50:44;2.70;99.90
28715;DHT22;15886;49.170;14.572;2023-02-01T23:53:14;2.70;99.90
28715;DHT22;15886;49.170;14.572;2023-02-01T23:55:51;2.70;99.90
28715;DHT22;15886;49.170;14.572;2023-02-01T23:58:20;2.80;99.90
